Time;durP1;ratioP1;P1;durP2;ratioP2;P2;SDS_P1;SDS_P2;PMS_P1;PMS_P2;Temp;Humidity;BMP_temperature;BMP_pressure;BME280_temperature;BME280_humidity;BME280_pressure;Samples;Min_cycle;Max_cycle;Signal;HPM_P1;HPM_P2
2023/12/11 00:01:14;;;;;;;15.80;3.93;;;;;;;;;;6213442;23;20190;-91
2023/12/11 00:03:43;;;;;;;18.70;5.67;;;;;;;;;;6214358;23;20220;-91
2023/12/11 00:06:13;;;;;;;22.63;6.10;;;;;;;;;;6214220;23;20240;-91
2023/12/11 00:08:41;;;;;;;14.27;4.33;;;;;;;;;;6213690;23;20180;-91
2023/12/11 00:11:12;;;;;;;27.07;5.67;;;;;;;;;;6213927;23;20177;-91
2023/12/11 00:13:41;;;;;;;9.77;4.03;;;;;;;;;;6214066;23;20182;-92
2023/12/11 00:16:09;;;;;;;24.23;7.00;;;;;;;;;;6214158;23;20181;-91
2023/12/11 00:18:38;;;;;;;20.00;6.10;;;;;;;;;;6213713;23;20180;-91
2023/12/11 00:21:07;;;;;;;17.27;5.77;;;;;;;;;;6213603;23;20425;-91
2023/12/11 00:23:38;;;;;;;22.60;6.07;;;;;;;;;;6213915;23;20207;-91
2023/12/11 00:26:06;;;;;;;33.10;7.40;;;;;;;;;;6214222;23;20204;-91
2023/12/11 00:28:35;;;;;;;23.53;7.90;;;;;;;;;;6214700;23;20259;-91
2023/12/11 00:31:07;;;;;;;19.07;7.60;;;;;;;;;;6213986;23;20268;-90
2023/12/11 00:33:40;;;;;;;12.07;4.93;;;;;;;;;;6213707;23;20181;-92
2023/12/11 00:36:09;;;;;;;30.10;9.77;;;;;;;;;;6213916;23;20181;-91
2023/12/11 00:38:39;;;;;;;34.17;8.77;;;;;;;;;;6214945;23;20169;-90
2023/12/11 00:41:08;;;;;;;15.13;5.10;;;;;;;;;;6215557;23;20171;-91
2023/12/11 00:43:37;;;;;;;29.47;5.53;;;;;;;;;;6215454;23;20218;-91
2023/12/11 00:46:14;;;;;;;15.07;4.73;;;;;;;;;;6215752;23;20203;-92
2023/12/11 00:48:42;;;;;;;18.33;4.77;;;;;;;;;;6215888;23;20177;-90
2023/12/11 00:51:16;;;;;;;13.73;5.30;;;;;;;;;;6214651;23;20264;-90
2023/12/11 00:53:46;;;;;;;31.10;7.67;;;;;;;;;;6215755;23;20178;-91
2023/12/11 00:56:15;;;;;;;37.10;9.33;;;;;;;;;;6215813;23;20442;-91
2023/12/11 00:58:44;;;;;;;24.30;8.10;;;;;;;;;;6216106;23;20212;-91
2023/12/11 01:01:13;;;;;;;23.43;6.73;;;;;;;;;;6215612;23;20205;-91
2023/12/11 01:03:41;;;;;;;22.97;6.67;;;;;;;;;;6215471;23;20174;-91
2023/12/11 01:06:10;;;;;;;32.13;8.70;;;;;;;;;;6215554;23;20189;-91
2023/12/11 01:08:39;;;;;;;25.43;6.70;;;;;;;;;;6216520;23;20184;-91
2023/12/11 01:11:10;;;;;;;21.70;5.03;;;;;;;;;;6215682;23;20266;-91
2023/12/11 01:13:38;;;;;;;41.33;9.73;;;;;;;;;;6215743;23;20205;-92
2023/12/11 01:16:07;;;;;;;36.57;12.73;;;;;;;;;;6215955;23;20175;-92
2023/12/11 01:18:36;;;;;;;38.47;11.80;;;;;;;;;;6215828;23;20201;-93
2023/12/11 01:21:05;;;;;;;44.73;10.10;;;;;;;;;;6215427;23;20181;-91
2023/12/11 01:23:33;;;;;;;31.83;6.87;;;;;;;;;;6215944;23;20192;-92
2023/12/11 01:26:02;;;;;;;27.10;8.83;;;;;;;;;;6215926;23;20201;-91
2023/12/11 01:28:32;;;;;;;34.80;8.57;;;;;;;;;;6215725;23;20209;-91
2023/12/11 01:31:00;;;;;;;26.53;5.43;;;;;;;;;;6214544;23;20189;-91
2023/12/11 01:33:29;;;;;;;33.10;8.00;;;;;;;;;;6215514;23;20215;-91
2023/12/11 01:35:58;;;;;;;24.70;8.27;;;;;;;;;;6215820;23;20169;-91
2023/12/11 01:38:26;;;;;;;19.23;5.87;;;;;;;;;;6215490;23;20185;-91
2023/12/11 01:40:55;;;;;;;19.57;7.93;;;;;;;;;;6215295;23;20190;-91
2023/12/11 01:43:24;;;;;;;20.23;4.70;;;;;;;;;;6215731;23;20192;-91
2023/12/11 01:46:03;;;;;;;25.37;8.30;;;;;;;;;;6215285;23;20219;-91
2023/12/11 01:48:32;;;;;;;17.33;6.83;;;;;;;;;;6215750;23;20185;-91
2023/12/11 01:51:01;;;;;;;15.07;4.57;;;;;;;;;;6214279;23;20177;-92
2023/12/11 01:53:31;;;;;;;31.10;11.47;;;;;;;;;;6215257;23;20186;-91
2023/12/11 01:56:00;;;;;;;31.53;9.13;;;;;;;;;;6215664;23;20174;-91
2023/12/11 01:58:29;;;;;;;21.43;5.57;;;;;;;;;;6215444;23;20181;-91
2023/12/11 02:01:00;;;;;;;29.17;8.67;;;;;;;;;;6213989;23;20266;-90
2023/12/11 02:03:28;;;;;;;32.63;8.10;;;;;;;;;;6214501;23;20183;-91
2023/12/11 02:05:57;;;;;;;13.33;4.47;;;;;;;;;;6215303;23;20195;-91
2023/12/11 02:08:26;;;;;;;35.63;8.37;;;;;;;;;;6215549;23;20173;-91
2023/12/11 02:10:55;;;;;;;26.67;6.17;;;;;;;;;;6214363;23;20173;-91
2023/12/11 02:13:24;;;;;;;25.23;7.47;;;;;;;;;;6214990;23;20172;-91
2023/12/11 02:15:52;;;;;;;22.77;6.97;;;;;;;;;;6215689;23;20174;-91
2023/12/11 02:18:22;;;;;;;23.90;7.23;;;;;;;;;;6214953;23;20205;-92
2023/12/11 02:20:51;;;;;;;21.17;4.83;;;;;;;;;;6214184;23;20222;-91
2023/12/11 02:23:23;;;;;;;25.67;7.00;;;;;;;;;;6214895;23;20193;-91
2023/12/11 02:25:57;;;;;;;20.53;5.80;;;;;;;;;;6214756;23;20189;-90
2023/12/11 02:28:27;;;;;;;20.57;5.90;;;;;;;;;;6215049;23;20213;-91
2023/12/11 02:30:55;;;;;;;25.17;5.50;;;;;;;;;;6214634;23;20178;-91
2023/12/11 02:33:24;;;;;;;11.50;4.73;;;;;;;;;;6214415;23;20174;-91
2023/12/11 02:35:52;;;;;;;19.87;5.27;;;;;;;;;;6215453;23;20173;-91
2023/12/11 02:38:21;;;;;;;15.40;4.87;;;;;;;;;;6215302;23;20181;-91
2023/12/11 02:40:49;;;;;;;27.63;7.17;;;;;;;;;;6214309;23;20166;-91
2023/12/11 02:43:18;;;;;;;27.67;6.57;;;;;;;;;;6214478;23;20177;-91
2023/12/11 02:45:48;;;;;;;23.77;5.50;;;;;;;;;;6215105;23;20194;-92
2023/12/11 02:48:18;;;;;;;31.23;7.80;;;;;;;;;;6214826;23;20178;-91
2023/12/11 02:50:47;;;;;;;27.23;7.43;;;;;;;;;;6214531;23;20178;-91
2023/12/11 02:53:15;;;;;;;20.73;6.40;;;;;;;;;;6214605;23;20205;-90
2023/12/11 02:55:44;;;;;;;12.00;4.13;;;;;;;;;;6215107;23;20190;-91
2023/12/11 02:58:12;;;;;;;17.03;4.37;;;;;;;;;;6215314;23;20179;-91
2023/12/11 03:00:41;;;;;;;14.10;4.30;;;;;;;;;;6214165;23;20208;-91
2023/12/11 03:03:11;;;;;;;18.20;4.13;;;;;;;;;;6214410;23;20208;-91
2023/12/11 03:05:39;;;;;;;14.47;4.17;;;;;;;;;;6214704;23;20248;-91
2023/12/11 03:08:08;;;;;;;22.53;5.93;;;;;;;;;;6214629;23;20204;-92
2023/12/11 03:10:37;;;;;;;18.37;5.23;;;;;;;;;;6214521;23;20182;-93
2023/12/11 03:13:05;;;;;;;7.73;3.17;;;;;;;;;;6213934;23;20170;-91
2023/12/11 03:15:34;;;;;;;23.00;5.43;;;;;;;;;;6214960;23;20170;-91
2023/12/11 03:18:03;;;;;;;13.13;4.13;;;;;;;;;;6214492;23;20177;-92
2023/12/11 03:20:33;;;;;;;26.10;8.23;;;;;;;;;;6214411;23;20302;-91
2023/12/11 03:23:01;;;;;;;28.30;7.73;;;;;;;;;;6213642;23;20193;-90
2023/12/11 03:25:30;;;;;;;25.47;7.20;;;;;;;;;;6214815;23;20174;-92
2023/12/11 03:27:58;;;;;;;22.23;6.50;;;;;;;;;;6214544;23;20184;-92
2023/12/11 03:30:27;;;;;;;19.93;6.70;;;;;;;;;;6214031;23;20178;-92
2023/12/11 03:32:56;;;;;;;15.80;4.57;;;;;;;;;;6214092;23;20258;-91
2023/12/11 03:35:24;;;;;;;9.63;4.37;;;;;;;;;;6214485;23;20174;-92
2023/12/11 03:37:54;;;;;;;14.30;3.83;;;;;;;;;;6214622;23;20181;-91
2023/12/11 03:40:23;;;;;;;8.37;2.73;;;;;;;;;;6213940;23;20181;-91
2023/12/11 03:42:51;;;;;;;19.23;6.73;;;;;;;;;;6213915;23;20174;-92
2023/12/11 03:45:20;;;;;;;13.10;4.80;;;;;;;;;;6214716;23;20209;-92
2023/12/11 03:47:48;;;;;;;17.90;5.57;;;;;;;;;;6214532;23;20252;-92
2023/12/11 03:50:17;;;;;;;15.93;4.50;;;;;;;;;;6214170;23;20174;-90
2023/12/11 03:52:45;;;;;;;17.03;4.93;;;;;;;;;;6213888;23;20178;-91
2023/12/11 03:55:16;;;;;;;14.63;3.70;;;;;;;;;;6213649;23;20171;-91
2023/12/11 03:57:44;;;;;;;13.97;4.27;;;;;;;;;;6214380;23;20201;-91
2023/12/11 04:00:14;;;;;;;15.30;4.97;;;;;;;;;;6213625;23;20376;-92
2023/12/11 04:02:42;;;;;;;25.53;8.07;;;;;;;;;;6213634;23;20193;-91
2023/12/11 04:05:11;;;;;;;20.30;5.17;;;;;;;;;;6214308;23;20215;-91
2023/12/11 04:07:39;;;;;;;16.93;5.57;;;;;;;;;;6213784;23;20209;-91
2023/12/11 04:10:08;;;;;;;35.10;8.20;;;;;;;;;;6213931;23;20175;-91
2023/12/11 04:12:39;;;;;;;16.80;5.87;;;;;;;;;;6213902;23;20200;-90
2023/12/11 04:15:07;;;;;;;28.53;7.37;;;;;;;;;;6216470;23;20197;-91
2023/12/11 04:17:36;;;;;;;20.50;6.30;;;;;;;;;;6216536;23;20178;-91
2023/12/11 04:20:05;;;;;;;19.17;7.07;;;;;;;;;;6215925;23;20176;-92
2023/12/11 04:22:34;;;;;;;18.37;4.77;;;;;;;;;;6215485;23;20284;-91
2023/12/11 04:25:03;;;;;;;18.03;6.00;;;;;;;;;;6216217;23;20180;-91
2023/12/11 04:27:31;;;;;;;25.97;4.70;;;;;;;;;;6216030;23;20240;-91
2023/12/11 04:30:02;;;;;;;15.40;4.47;;;;;;;;;;6215618;23;20212;-90
2023/12/11 04:32:30;;;;;;;14.60;4.53;;;;;;;;;;6215465;23;20204;-91
2023/12/11 04:34:59;;;;;;;6.70;2.43;;;;;;;;;;6216108;23;20182;-92
2023/12/11 04:37:27;;;;;;;12.27;4.10;;;;;;;;;;6216092;23;20173;-92
2023/12/11 04:39:56;;;;;;;20.40;6.13;;;;;;;;;;6215550;23;20182;-91
2023/12/11 04:42:25;;;;;;;20.03;3.97;;;;;;;;;;6215128;23;20177;-91
2023/12/11 04:44:54;;;;;;;13.17;3.33;;;;;;;;;;6216209;23;20269;-93
2023/12/11 04:47:24;;;;;;;11.37;4.77;;;;;;;;;;6215929;23;20213;-92
2023/12/11 04:49:52;;;;;;;11.43;3.83;;;;;;;;;;6215526;23;20178;-91
2023/12/11 04:52:21;;;;;;;13.93;4.73;;;;;;;;;;6215440;23;20273;-91
2023/12/11 04:54:49;;;;;;;23.03;4.07;;;;;;;;;;6215601;23;20171;-92
2023/12/11 04:57:19;;;;;;;11.63;3.30;;;;;;;;;;6216155;23;20197;-92
2023/12/11 04:59:47;;;;;;;12.53;4.33;;;;;;;;;;6215183;23;20435;-91
2023/12/11 05:02:15;;;;;;;18.87;4.07;;;;;;;;;;6215173;23;20174;-92
2023/12/11 05:04:45;;;;;;;17.50;5.27;;;;;;;;;;6215740;23;20172;-91
2023/12/11 05:07:14;;;;;;;11.07;2.73;;;;;;;;;;6215858;23;20217;-91
2023/12/11 05:09:43;;;;;;;5.50;3.30;;;;;;;;;;6214788;23;20272;-91
2023/12/11 05:12:11;;;;;;;5.03;3.37;;;;;;;;;;6215223;23;20202;-92
2023/12/11 05:14:40;;;;;;;9.93;3.70;;;;;;;;;;6215708;23;20181;-92
2023/12/11 05:17:08;;;;;;;11.57;4.43;;;;;;;;;;6215916;23;20177;-92
2023/12/11 05:19:37;;;;;;;14.80;4.37;;;;;;;;;;6215484;23;20177;-93
2023/12/11 05:22:07;;;;;;;13.53;4.03;;;;;;;;;;6215224;23;20267;-92
2023/12/11 05:24:36;;;;;;;15.43;5.90;;;;;;;;;;6215001;23;20288;-92
2023/12/11 05:27:05;;;;;;;10.50;3.97;;;;;;;;;;6215856;23;20249;-92
2023/12/11 05:29:33;;;;;;;14.83;5.30;;;;;;;;;;6215875;23;20211;-91
2023/12/11 05:32:02;;;;;;;11.53;3.57;;;;;;;;;;6214547;23;20185;-93
2023/12/11 05:34:30;;;;;;;14.67;3.97;;;;;;;;;;6215099;23;20193;-92
2023/12/11 05:36:59;;;;;;;18.13;6.00;;;;;;;;;;6215147;23;20168;-92
2023/12/11 05:39:29;;;;;;;11.73;4.47;;;;;;;;;;6215086;23;20180;-92
2023/12/11 05:41:58;;;;;;;21.87;4.87;;;;;;;;;;6214579;23;20177;-91
2023/12/11 05:44:26;;;;;;;15.47;4.63;;;;;;;;;;6215637;23;20185;-91
2023/12/11 05:46:55;;;;;;;15.60;4.83;;;;;;;;;;6216353;23;20275;-92
2023/12/11 05:49:23;;;;;;;15.83;3.90;;;;;;;;;;6216291;23;20181;-92
2023/12/11 05:51:53;;;;;;;11.23;3.07;;;;;;;;;;6214578;23;20166;-92
2023/12/11 05:54:21;;;;;;;13.00;3.90;;;;;;;;;;6215208;23;20226;-92
2023/12/11 05:56:52;;;;;;;18.73;4.77;;;;;;;;;;6216048;23;20235;-92
2023/12/11 05:59:20;;;;;;;16.07;6.10;;;;;;;;;;6215743;23;20192;-92
2023/12/11 06:01:49;;;;;;;18.23;5.20;;;;;;;;;;6215028;23;20185;-92
2023/12/11 06:04:18;;;;;;;15.67;5.03;;;;;;;;;;6215519;23;20181;-92
2023/12/11 06:06:47;;;;;;;15.93;4.97;;;;;;;;;;6215530;23;20173;-91
2023/12/11 06:09:15;;;;;;;22.17;4.80;;;;;;;;;;6215159;23;20208;-92
2023/12/11 06:11:45;;;;;;;21.10;6.90;;;;;;;;;;6214073;23;20178;-92
2023/12/11 06:14:15;;;;;;;21.83;4.20;;;;;;;;;;6215254;23;20170;-92
2023/12/11 06:16:44;;;;;;;7.80;2.60;;;;;;;;;;6215824;23;20192;-91
2023/12/11 06:19:13;;;;;;;17.63;4.70;;;;;;;;;;6215118;23;20170;-92
2023/12/11 06:21:42;;;;;;;9.10;3.20;;;;;;;;;;6215096;23;20268;-91
2023/12/11 06:24:10;;;;;;;8.57;4.30;;;;;;;;;;6214553;23;20197;-92
2023/12/11 06:26:42;;;;;;;8.37;3.03;;;;;;;;;;6215448;23;20192;-91
2023/12/11 06:29:13;;;;;;;17.53;4.43;;;;;;;;;;6214798;23;20289;-92
2023/12/11 06:31:43;;;;;;;9.50;3.00;;;;;;;;;;6215177;23;20171;-92
2023/12/11 06:34:11;;;;;;;18.40;4.47;;;;;;;;;;6215221;23;20186;-93
2023/12/11 06:36:40;;;;;;;10.77;4.03;;;;;;;;;;6214831;23;20288;-92
2023/12/11 06:39:09;;;;;;;14.70;4.03;;;;;;;;;;6215768;23;20207;-91
2023/12/11 06:41:37;;;;;;;6.83;3.17;;;;;;;;;;6214513;23;20176;-92
2023/12/11 06:44:06;;;;;;;5.33;2.10;;;;;;;;;;6215038;23;20181;-91
2023/12/11 06:46:36;;;;;;;17.43;3.70;;;;;;;;;;6215608;23;20258;-92
2023/12/11 06:49:06;;;;;;;20.97;4.90;;;;;;;;;;6215810;23;20197;-92
2023/12/11 06:51:37;;;;;;;18.40;4.23;;;;;;;;;;6214717;23;20413;-92
2023/12/11 06:54:06;;;;;;;12.10;3.30;;;;;;;;;;6216033;23;20166;-92
2023/12/11 06:56:34;;;;;;;18.00;6.43;;;;;;;;;;6215493;23;20264;-92
2023/12/11 06:59:03;;;;;;;18.53;4.43;;;;;;;;;;6215065;23;20223;-91
2023/12/11 07:01:33;;;;;;;21.27;6.13;;;;;;;;;;6214366;23;20275;-91
2023/12/11 07:04:02;;;;;;;22.93;7.40;;;;;;;;;;6214334;23;20191;-91
2023/12/11 07:06:33;;;;;;;19.33;5.37;;;;;;;;;;6215537;23;20181;-92
2023/12/11 07:09:02;;;;;;;23.77;7.83;;;;;;;;;;6215307;23;20220;-90
2023/12/11 07:11:31;;;;;;;23.63;7.90;;;;;;;;;;6214112;23;20181;-90
2023/12/11 07:14:00;;;;;;;18.30;6.00;;;;;;;;;;6213650;23;20168;-91
2023/12/11 07:16:29;;;;;;;31.50;9.57;;;;;;;;;;6214519;23;20202;-91
2023/12/11 07:18:57;;;;;;;34.23;8.30;;;;;;;;;;6214806;23;20173;-91
2023/12/11 07:21:26;;;;;;;21.93;4.30;;;;;;;;;;6214559;23;20201;-91
2023/12/11 07:23:56;;;;;;;41.57;7.03;;;;;;;;;;6214104;23;20213;-91
2023/12/11 07:26:25;;;;;;;25.63;9.07;;;;;;;;;;6214761;23;20197;-91
2023/12/11 07:28:53;;;;;;;28.23;8.53;;;;;;;;;;6214601;23;20214;-91
2023/12/11 07:31:22;;;;;;;14.90;4.57;;;;;;;;;;6214784;23;20271;-90
2023/12/11 07:33:50;;;;;;;28.47;5.03;;;;;;;;;;6214182;23;20268;-91
2023/12/11 07:36:22;;;;;;;21.60;7.37;;;;;;;;;;6215392;23;20177;-91
2023/12/11 07:38:51;;;;;;;23.67;7.07;;;;;;;;;;6215003;23;20183;-87
2023/12/11 07:41:21;;;;;;;26.70;5.17;;;;;;;;;;6213741;23;20180;-87
2023/12/11 07:43:50;;;;;;;21.80;6.60;;;;;;;;;;6214164;23;20181;-87
2023/12/11 07:46:19;;;;;;;31.90;10.47;;;;;;;;;;6214965;23;20272;-87
2023/12/11 07:48:48;;;;;;;25.20;8.80;;;;;;;;;;6214085;23;20214;-87
2023/12/11 07:51:20;;;;;;;24.70;7.67;;;;;;;;;;6213531;23;20211;-87
2023/12/11 07:53:49;;;;;;;16.90;5.60;;;;;;;;;;6214452;23;20175;-87
2023/12/11 07:56:22;;;;;;;24.33;6.43;;;;;;;;;;6214763;23;20183;-87
2023/12/11 07:58:51;;;;;;;24.83;6.60;;;;;;;;;;6214470;23;20172;-87
2023/12/11 08:01:19;;;;;;;27.23;7.17;;;;;;;;;;6213336;23;20208;-87
2023/12/11 08:03:48;;;;;;;20.03;7.03;;;;;;;;;;6213949;23;20205;-87
2023/12/11 08:06:17;;;;;;;22.47;4.30;;;;;;;;;;6214195;23;20181;-87
2023/12/11 08:08:46;;;;;;;15.30;4.63;;;;;;;;;;6213715;23;20224;-87
2023/12/11 08:11:19;;;;;;;12.30;5.03;;;;;;;;;;6213346;23;20182;-88
2023/12/11 08:13:49;;;;;;;14.37;3.60;;;;;;;;;;6213949;23;20188;-87
2023/12/11 08:16:18;;;;;;;22.37;3.27;;;;;;;;;;6213550;23;20166;-87
2023/12/11 08:18:48;;;;;;;15.80;4.50;;;;;;;;;;6214574;23;20270;-87
2023/12/11 08:21:18;;;;;;;13.80;3.63;;;;;;;;;;6213338;23;20252;-87
2023/12/11 08:23:47;;;;;;;14.53;3.97;;;;;;;;;;6212846;23;20211;-87
2023/12/11 08:26:18;;;;;;;8.97;4.23;;;;;;;;;;6213501;23;20177;-87
2023/12/11 08:28:47;;;;;;;8.53;2.93;;;;;;;;;;6213825;23;20287;-87
2023/12/11 08:31:17;;;;;;;10.50;2.53;;;;;;;;;;6213981;23;20176;-87
2023/12/11 08:33:48;;;;;;;8.17;3.20;;;;;;;;;;6212664;23;20222;-87
2023/12/11 08:36:17;;;;;;;10.47;3.53;;;;;;;;;;6213965;23;20247;-87
2023/12/11 08:38:46;;;;;;;9.40;2.47;;;;;;;;;;6214422;23;20180;-87
2023/12/11 08:41:15;;;;;;;12.27;3.57;;;;;;;;;;6213556;23;20178;-87
2023/12/11 08:43:44;;;;;;;13.20;3.47;;;;;;;;;;6213345;23;20181;-89
2023/12/11 08:46:13;;;;;;;0.50;0.50;;;;;;;;;;6214183;23;20276;-86
2023/12/11 08:48:44;;;;;;;0.50;0.50;;;;;;;;;;6213804;23;20251;-86
2023/12/11 08:51:13;;;;;;;0.50;0.50;;;;;;;;;;6213138;23;20177;-86
2023/12/11 08:53:41;;;;;;;27.37;6.50;;;;;;;;;;6213939;23;20177;-86
2023/12/11 08:56:10;;;;;;;11.73;3.73;;;;;;;;;;6215230;23;20186;-86
2023/12/11 08:58:39;;;;;;;8.17;3.43;;;;;;;;;;6215406;23;20168;-87
2023/12/11 09:01:08;;;;;;;20.20;5.43;;;;;;;;;;6216036;23;20184;-87
2023/12/11 09:03:38;;;;;;;9.67;3.27;;;;;;;;;;6215355;23;20180;-87
2023/12/11 09:06:09;;;;;;;12.53;3.50;;;;;;;;;;6217108;23;20180;-86
2023/12/11 09:08:38;;;;;;;20.97;5.03;;;;;;;;;;6215971;23;20184;-86
2023/12/11 09:11:08;;;;;;;14.97;4.60;;;;;;;;;;6216414;23;20177;-86
2023/12/11 09:13:37;;;;;;;16.63;4.20;;;;;;;;;;6215067;23;20267;-86
2023/12/11 09:16:06;;;;;;;14.43;4.53;;;;;;;;;;6215619;23;20248;-86
2023/12/11 09:18:35;;;;;;;12.53;3.63;;;;;;;;;;6216019;23;20266;-86
2023/12/11 09:21:04;;;;;;;10.90;4.20;;;;;;;;;;6215278;23;20175;-86
2023/12/11 09:23:36;;;;;;;15.80;4.80;;;;;;;;;;6214767;23;20279;-87
2023/12/11 09:26:05;;;;;;;16.00;5.37;;;;;;;;;;6215645;23;20180;-86
2023/12/11 09:28:34;;;;;;;11.23;3.50;;;;;;;;;;6215603;23;20296;-87
2023/12/11 09:31:15;;;;;;;32.87;7.13;;;;;;;;;;6214680;23;20200;-86
2023/12/11 09:33:44;;;;;;;15.43;4.03;;;;;;;;;;6214858;23;20178;-87
2023/12/11 09:36:13;;;;;;;25.43;6.20;;;;;;;;;;6215286;23;20206;-86
2023/12/11 09:38:43;;;;;;;18.00;5.53;;;;;;;;;;6215922;23;20181;-86
2023/12/11 09:41:12;;;;;;;16.83;4.50;;;;;;;;;;6214885;23;20173;-87
2023/12/11 09:43:42;;;;;;;12.93;4.13;;;;;;;;;;6214988;23;20231;-86
2023/12/11 09:46:12;;;;;;;4.70;2.13;;;;;;;;;;6214628;23;20180;-86
2023/12/11 09:48:41;;;;;;;12.83;4.03;;;;;;;;;;6214352;23;20250;-86
2023/12/11 09:51:10;;;;;;;10.70;2.73;;;;;;;;;;6215143;23;20262;-86
2023/12/11 09:53:39;;;;;;;5.33;2.77;;;;;;;;;;6214221;23;20178;-90
2023/12/11 09:56:09;;;;;;;10.17;3.23;;;;;;;;;;6215395;23;20183;-88
2023/12/11 09:58:38;;;;;;;11.37;3.37;;;;;;;;;;6215430;23;20177;-89
2023/12/11 10:01:07;;;;;;;4.60;2.23;;;;;;;;;;6215692;23;20176;-89
2023/12/11 10:03:35;;;;;;;8.57;2.67;;;;;;;;;;6214578;23;20183;-88
2023/12/11 10:06:04;;;;;;;2.83;1.60;;;;;;;;;;6215931;23;20196;-89
2023/12/11 10:08:33;;;;;;;6.53;2.73;;;;;;;;;;6214954;23;20187;-89
2023/12/11 10:11:11;;;;;;;12.07;3.30;;;;;;;;;;6214642;23;20218;-89
2023/12/11 10:13:39;;;;;;;8.60;2.93;;;;;;;;;;6214164;23;20181;-89
2023/12/11 10:16:27;;;;;;;6.20;1.47;;;;;;;;;;6215079;23;20266;-89
2023/12/11 10:18:55;;;;;;;7.87;2.37;;;;;;;;;;6215303;23;20182;-90
2023/12/11 10:21:25;;;;;;;5.93;2.37;;;;;;;;;;6214600;23;20230;-90
2023/12/11 10:24:03;;;;;;;10.40;2.63;;;;;;;;;;6214313;23;20197;-89
2023/12/11 10:26:33;;;;;;;3.83;1.73;;;;;;;;;;6215739;23;20367;-88
2023/12/11 10:29:18;;;;;;;10.00;2.27;;;;;;;;;;6214878;23;20209;-90
2023/12/11 10:31:47;;;;;;;8.10;2.60;;;;;;;;;;6214538;23;20192;-90
2023/12/11 10:34:15;;;;;;;4.87;1.77;;;;;;;;;;6214391;23;20183;-90
2023/12/11 10:36:53;;;;;;;1.20;1.10;;;;;;;;;;6214783;23;20176;-90
2023/12/11 10:39:22;;;;;;;6.97;1.50;;;;;;;;;;6214944;23;20182;-89
2023/12/11 10:41:56;;;;;;;3.23;2.00;;;;;;;;;;6214295;23;20230;-89
2023/12/11 10:44:25;;;;;;;3.60;1.70;;;;;;;;;;6214461;23;20175;-89
2023/12/11 10:47:14;;;;;;;4.27;1.93;;;;;;;;;;6214658;23;20189;-89
2023/12/11 10:49:43;;;;;;;2.60;1.50;;;;;;;;;;6214748;23;20195;-90
2023/12/11 10:52:12;;;;;;;7.97;1.83;;;;;;;;;;6214247;23;20184;-89
2023/12/11 10:54:42;;;;;;;2.17;1.87;;;;;;;;;;6214421;23;20273;-90
2023/12/11 10:57:16;;;;;;;8.53;2.20;;;;;;;;;;6215082;23;20176;-90
2023/12/11 10:59:46;;;;;;;1.50;1.30;;;;;;;;;;6215275;23;20176;-89
2023/12/11 11:02:15;;;;;;;3.00;2.00;;;;;;;;;;6215778;23;20271;-89
2023/12/11 11:04:45;;;;;;;3.93;1.23;;;;;;;;;;6215160;23;20272;-88
2023/12/11 11:07:16;;;;;;;1.27;1.17;;;;;;;;;;6214886;23;20184;-89
2023/12/11 11:09:50;;;;;;;3.23;1.53;;;;;;;;;;6215281;23;20200;-90
2023/12/11 11:12:28;;;;;;;3.23;2.03;;;;;;;;;;6213768;23;20202;-89
2023/12/11 11:14:56;;;;;;;5.10;1.87;;;;;;;;;;6214501;23;20176;-90
2023/12/11 11:17:25;;;;;;;4.27;1.47;;;;;;;;;;6214406;23;20204;-87
2023/12/11 11:20:10;;;;;;;6.03;3.43;;;;;;;;;;6214856;23;20179;-87
2023/12/11 11:22:39;;;;;;;11.77;2.57;;;;;;;;;;6213455;23;20196;-87
2023/12/11 11:25:27;;;;;;;7.50;2.50;;;;;;;;;;6214481;23;20190;-87
2023/12/11 11:27:57;;;;;;;5.60;1.80;;;;;;;;;;6214506;23;20196;-87
2023/12/11 11:30:44;;;;;;;5.10;2.27;;;;;;;;;;6214175;23;20235;-87
2023/12/11 11:33:14;;;;;;;6.20;2.37;;;;;;;;;;6213353;23;20176;-87
2023/12/11 11:35:48;;;;;;;2.67;1.70;;;;;;;;;;6213860;23;20173;-87
2023/12/11 11:38:18;;;;;;;4.53;1.53;;;;;;;;;;6214316;23;20263;-87
2023/12/11 11:40:48;;;;;;;5.93;1.83;;;;;;;;;;6214265;23;20184;-88
2023/12/11 11:43:19;;;;;;;1.67;1.53;;;;;;;;;;6213635;23;20219;-87
2023/12/11 11:45:55;;;;;;;1.97;1.27;;;;;;;;;;6214513;23;20203;-87
2023/12/11 11:48:41;;;;;;;5.77;1.73;;;;;;;;;;6214827;23;20179;-87
2023/12/11 11:51:11;;;;;;;2.70;1.20;;;;;;;;;;6213459;23;20183;-88
2023/12/11 11:53:40;;;;;;;0.87;0.87;;;;;;;;;;6213608;23;20177;-88
2023/12/11 11:56:09;;;;;;;2.20;1.13;;;;;;;;;;6214244;23;20173;-88
2023/12/11 11:58:39;;;;;;;3.13;1.93;;;;;;;;;;6213961;23;20169;-88
2023/12/11 12:01:08;;;;;;;6.97;1.00;;;;;;;;;;6213441;23;20168;-88
2023/12/11 12:03:43;;;;;;;9.30;2.17;;;;;;;;;;6213272;23;20260;-88
2023/12/11 12:06:12;;;;;;;3.73;1.30;;;;;;;;;;6214388;23;20227;-88
2023/12/11 12:08:43;;;;;;;6.27;1.77;;;;;;;;;;6214358;23;20211;-87
2023/12/11 12:11:12;;;;;;;4.33;1.40;;;;;;;;;;6213629;23;20188;-88
2023/12/11 12:13:42;;;;;;;6.40;1.70;;;;;;;;;;6213468;23;20173;-87
2023/12/11 12:16:11;;;;;;;6.43;2.23;;;;;;;;;;6214146;23;20172;-88
2023/12/11 12:18:49;;;;;;;6.30;1.90;;;;;;;;;;6214544;23;20180;-88
2023/12/11 12:21:18;;;;;;;2.50;1.20;;;;;;;;;;6213817;23;20174;-88
2023/12/11 12:23:46;;;;;;;13.57;1.80;;;;;;;;;;6213265;23;20195;-88
2023/12/11 12:26:15;;;;;;;4.63;2.17;;;;;;;;;;6214059;23;20177;-88
2023/12/11 12:28:46;;;;;;;3.13;1.40;;;;;;;;;;6213833;23;20172;-88
2023/12/11 12:31:15;;;;;;;8.13;3.47;;;;;;;;;;6213173;23;20204;-88
2023/12/11 12:33:44;;;;;;;7.00;1.97;;;;;;;;;;6213707;23;20172;-88
2023/12/11 12:36:13;;;;;;;5.77;1.70;;;;;;;;;;6215874;23;20233;-88
2023/12/11 12:38:42;;;;;;;5.53;1.50;;;;;;;;;;6216188;23;20176;-88
2023/12/11 12:41:12;;;;;;;4.43;1.43;;;;;;;;;;6215813;23;20177;-88
2023/12/11 12:43:41;;;;;;;1.10;1.00;;;;;;;;;;6215207;23;20176;-88
2023/12/11 12:46:11;;;;;;;2.73;1.47;;;;;;;;;;6216193;23;20180;-87
2023/12/11 12:48:40;;;;;;;7.10;1.67;;;;;;;;;;6216392;23;20173;-87
2023/12/11 12:51:09;;;;;;;5.20;1.73;;;;;;;;;;6215617;23;20192;-88
2023/12/11 12:53:46;;;;;;;10.40;2.50;;;;;;;;;;6214955;23;20181;-88
2023/12/11 12:56:18;;;;;;;8.63;3.97;;;;;;;;;;6215254;23;20179;-87
2023/12/11 12:58:48;;;;;;;4.90;2.40;;;;;;;;;;6216082;23;20181;-88
2023/12/11 13:01:18;;;;;;;2.87;1.20;;;;;;;;;;6215348;23;20172;-88
2023/12/11 13:03:50;;;;;;;5.03;1.80;;;;;;;;;;6214950;23;20207;-88
2023/12/11 13:06:26;;;;;;;8.30;2.80;;;;;;;;;;6215513;23;20173;-88
2023/12/11 13:08:55;;;;;;;4.17;1.37;;;;;;;;;;6215609;23;20226;-88
2023/12/11 13:11:23;;;;;;;3.10;2.80;;;;;;;;;;6215779;23;20201;-88
2023/12/11 13:13:55;;;;;;;3.93;1.93;;;;;;;;;;6214898;23;20188;-88
2023/12/11 13:16:24;;;;;;;6.00;2.60;;;;;;;;;;6215273;23;20177;-88
2023/12/11 13:18:55;;;;;;;6.43;2.33;;;;;;;;;;6215823;23;20177;-88
2023/12/11 13:21:25;;;;;;;1.50;1.10;;;;;;;;;;6215424;23;20179;-86
2023/12/11 13:23:55;;;;;;;3.30;1.50;;;;;;;;;;6214713;23;20197;-88
2023/12/11 13:26:28;;;;;;;2.23;0.97;;;;;;;;;;6215170;23;20167;-88
2023/12/11 13:28:56;;;;;;;10.83;3.77;;;;;;;;;;6215655;23;20212;-88
2023/12/11 13:31:26;;;;;;;5.73;1.70;;;;;;;;;;6216005;23;20224;-88
2023/12/11 13:33:55;;;;;;;6.37;2.07;;;;;;;;;;6215341;23;20184;-88
2023/12/11 13:36:24;;;;;;;8.23;2.17;;;;;;;;;;6215741;23;20173;-88
2023/12/11 13:38:52;;;;;;;5.33;1.77;;;;;;;;;;6215454;23;20260;-88
2023/12/11 13:41:22;;;;;;;7.53;2.50;;;;;;;;;;6214954;23;20164;-88
2023/12/11 13:43:50;;;;;;;4.33;1.73;;;;;;;;;;6215162;23;20184;-88
2023/12/11 13:46:19;;;;;;;0.80;0.80;;;;;;;;;;6215455;23;20196;-88
2023/12/11 13:48:49;;;;;;;11.73;3.47;;;;;;;;;;6215764;23;20178;-88
2023/12/11 13:51:18;;;;;;;4.60;1.90;;;;;;;;;;6216169;23;20185;-88
2023/12/11 13:53:49;;;;;;;4.83;1.93;;;;;;;;;;6215393;23;20190;-88
2023/12/11 13:56:18;;;;;;;3.93;2.47;;;;;;;;;;6215423;23;20184;-88
2023/12/11 13:58:48;;;;;;;8.47;2.70;;;;;;;;;;6215294;23;20208;-88
2023/12/11 14:01:17;;;;;;;4.83;2.67;;;;;;;;;;6215126;23;20184;-88
2023/12/11 14:03:47;;;;;;;3.93;1.83;;;;;;;;;;6214732;23;20185;-88
2023/12/11 14:06:21;;;;;;;10.97;2.53;;;;;;;;;;6215426;23;20184;-88
2023/12/11 14:08:49;;;;;;;1.33;1.23;;;;;;;;;;6214904;23;20196;-88
2023/12/11 14:11:18;;;;;;;3.63;2.03;;;;;;;;;;6215473;23;20192;-88
2023/12/11 14:13:47;;;;;;;1.03;0.93;;;;;;;;;;6214999;23;20188;-88
2023/12/11 14:16:16;;;;;;;3.60;1.73;;;;;;;;;;6215027;23;20171;-88
2023/12/11 14:18:44;;;;;;;5.00;1.60;;;;;;;;;;6215232;23;20265;-88
2023/12/11 14:21:13;;;;;;;2.20;1.47;;;;;;;;;;6214324;23;20183;-88
2023/12/11 14:23:43;;;;;;;4.10;1.40;;;;;;;;;;6214545;23;20245;-88
2023/12/11 14:26:12;;;;;;;3.47;1.80;;;;;;;;;;6215375;23;20177;-85
2023/12/11 14:28:40;;;;;;;1.67;1.50;;;;;;;;;;6214966;23;20178;-88
2023/12/11 14:31:11;;;;;;;1.67;1.20;;;;;;;;;;6214461;23;20178;-88
2023/12/11 14:33:40;;;;;;;4.27;1.27;;;;;;;;;;6214232;23;20215;-88
2023/12/11 14:36:11;;;;;;;6.27;1.60;;;;;;;;;;6215341;23;20188;-89
2023/12/11 14:38:51;;;;;;;2.00;1.03;;;;;;;;;;6215627;23;20180;-88
2023/12/11 14:41:19;;;;;;;6.90;1.73;;;;;;;;;;6215473;23;20177;-89
2023/12/11 14:43:48;;;;;;;13.43;2.00;;;;;;;;;;6214448;23;20182;-88
2023/12/11 14:46:16;;;;;;;1.43;1.23;;;;;;;;;;6215000;23;20246;-88
2023/12/11 14:48:45;;;;;;;1.40;1.00;;;;;;;;;;6214959;23;20168;-88